Time;durP1;ratioP1;P1;durP2;ratioP2;P2;SDS_P1;SDS_P2;PMS_P1;PMS_P2;Temp;Humidity;BMP_temperature;BMP_pressure;BME280_temperature;BME280_humidity;BME280_pressure;Samples;Min_cycle;Max_cycle;Signal;HPM_P1;HPM_P2
2021/01/13 00:01:30;;;;;;;12.82;8.00;;;;;;;;;;5036553;28;20108;-71
2021/01/13 00:03:56;;;;;;;15.50;8.35;;;;;;;;;;5037384;28;20030;-71
2021/01/13 00:06:27;;;;;;;13.27;8.52;;;;;;;;;;5037209;28;20032;-71
2021/01/13 00:08:59;;;;;;;14.00;7.93;;;;;;;;;;5037095;28;20525;-71
2021/01/13 00:11:25;;;;;;;12.40;7.28;;;;;;;;;;5037097;28;20022;-71
2021/01/13 00:13:51;;;;;;;12.93;7.88;;;;;;;;;;5036653;28;20468;-70
2021/01/13 00:16:18;;;;;;;14.73;7.97;;;;;;;;;;5036723;28;20137;-70
2021/01/13 00:18:43;;;;;;;15.85;7.80;;;;;;;;;;5036619;28;20056;-71
2021/01/13 00:21:12;;;;;;;13.75;7.28;;;;;;;;;;5035544;28;20368;-71
2021/01/13 00:23:40;;;;;;;11.73;6.93;;;;;;;;;;5036798;28;20013;-71
2021/01/13 00:26:06;;;;;;;13.75;7.57;;;;;;;;;;5036852;28;20033;-71
2021/01/13 00:28:32;;;;;;;11.98;7.57;;;;;;;;;;5036514;28;20348;-71
2021/01/13 00:30:58;;;;;;;11.07;7.07;;;;;;;;;;5036675;28;20108;-71
2021/01/13 00:33:23;;;;;;;11.55;7.28;;;;;;;;;;5018674;28;20045;-71
2021/01/13 00:35:49;;;;;;;11.80;6.05;;;;;;;;;;5036361;28;20037;-71
2021/01/13 00:38:14;;;;;;;10.05;5.82;;;;;;;;;;5035113;28;20022;-71
2021/01/13 00:40:40;;;;;;;11.00;6.40;;;;;;;;;;5036362;28;20098;-71
2021/01/13 00:43:05;;;;;;;8.63;5.63;;;;;;;;;;5036350;28;20022;-71
2021/01/13 00:45:31;;;;;;;9.10;6.20;;;;;;;;;;5036322;28;20029;-71
2021/01/13 00:48:00;;;;;;;10.25;5.68;;;;;;;;;;5036199;28;20025;-71
2021/01/13 00:50:26;;;;;;;9.05;5.75;;;;;;;;;;5036256;28;20034;-71
2021/01/13 00:52:52;;;;;;;7.90;5.18;;;;;;;;;;5036080;28;20033;-71
2021/01/13 00:55:17;;;;;;;8.23;5.25;;;;;;;;;;5035880;28;20464;-70
2021/01/13 00:57:49;;;;;;;7.82;5.13;;;;;;;;;;5036115;28;20095;-71
2021/01/13 01:00:15;;;;;;;7.00;4.70;;;;;;;;;;5036237;28;20116;-71
2021/01/13 01:02:41;;;;;;;6.68;5.05;;;;;;;;;;5036006;28;20112;-71
2021/01/13 01:05:09;;;;;;;6.85;5.15;;;;;;;;;;5034960;28;20026;-71
2021/01/13 01:07:43;;;;;;;5.45;4.38;;;;;;;;;;5033732;28;20049;-71
2021/01/13 01:10:17;;;;;;;6.57;4.13;;;;;;;;;;5035668;28;20033;-71
2021/01/13 01:12:43;;;;;;;6.72;3.90;;;;;;;;;;5035927;28;20033;-70
2021/01/13 01:15:08;;;;;;;5.40;4.03;;;;;;;;;;5034605;28;20419;-71
2021/01/13 01:17:34;;;;;;;4.15;3.40;;;;;;;;;;5035684;28;20079;-70
2021/01/13 01:20:00;;;;;;;4.30;3.38;;;;;;;;;;5035624;28;20056;-70
2021/01/13 01:22:25;;;;;;;4.80;3.40;;;;;;;;;;5035775;28;20026;-71
2021/01/13 01:24:50;;;;;;;4.53;3.03;;;;;;;;;;5034861;28;20021;-71
2021/01/13 01:27:16;;;;;;;3.53;2.83;;;;;;;;;;5035596;28;20033;-71
2021/01/13 01:29:41;;;;;;;3.13;2.80;;;;;;;;;;5035468;28;20029;-71
2021/01/13 01:32:07;;;;;;;3.63;3.03;;;;;;;;;;5035703;28;20184;-71
2021/01/13 01:34:32;;;;;;;3.30;2.60;;;;;;;;;;5035401;28;20025;-71
2021/01/13 01:36:58;;;;;;;3.17;2.47;;;;;;;;;;5035144;28;20080;-71
2021/01/13 01:39:23;;;;;;;2.88;2.58;;;;;;;;;;5035257;28;20383;-70
2021/01/13 01:41:49;;;;;;;3.53;2.50;;;;;;;;;;5035352;28;20037;-70
2021/01/13 01:44:20;;;;;;;4.07;2.45;;;;;;;;;;5035199;28;20018;-70
2021/01/13 01:46:48;;;;;;;3.22;2.40;;;;;;;;;;5035367;28;20112;-70
2021/01/13 01:49:14;;;;;;;2.63;2.00;;;;;;;;;;5035406;28;20024;-70
2021/01/13 01:52:00;;;;;;;2.90;2.00;;;;;;;;;;5034765;28;20384;-68
2021/01/13 01:54:25;;;;;;;2.55;2.30;;;;;;;;;;5034801;28;20502;-68
2021/01/13 01:56:53;;;;;;;2.60;2.15;;;;;;;;;;5034509;28;20077;-69
2021/01/13 01:59:20;;;;;;;3.20;2.60;;;;;;;;;;5035134;28;20026;-68
2021/01/13 02:01:51;;;;;;;3.13;2.17;;;;;;;;;;5035081;28;20025;-70
2021/01/13 02:04:23;;;;;;;2.30;2.05;;;;;;;;;;5033883;28;20034;-68
2021/01/13 02:06:57;;;;;;;2.95;2.30;;;;;;;;;;5034686;28;20030;-68
2021/01/13 02:09:29;;;;;;;2.30;2.00;;;;;;;;;;5033471;28;20048;-69
2021/01/13 02:11:56;;;;;;;1.67;1.58;;;;;;;;;;5034708;28;20053;-68
2021/01/13 02:14:22;;;;;;;3.38;2.03;;;;;;;;;;5034731;28;20423;-69
2021/01/13 02:16:54;;;;;;;1.95;1.70;;;;;;;;;;5034640;28;20029;-69
2021/01/13 02:19:38;;;;;;;2.17;1.92;;;;;;;;;;5032818;28;20021;-69
2021/01/13 02:22:10;;;;;;;1.90;1.63;;;;;;;;;;5034588;28;20021;-70
2021/01/13 02:25:04;;;;;;;2.08;1.88;;;;;;;;;;5034671;28;20041;-70
2021/01/13 02:27:49;;;;;;;2.03;1.85;;;;;;;;;;5033261;28;20039;-70
2021/01/13 02:30:16;;;;;;;1.98;1.80;;;;;;;;;;5034582;28;20038;-70
2021/01/13 02:32:45;;;;;;;2.25;2.05;;;;;;;;;;5034264;28;20021;-70
2021/01/13 02:35:17;;;;;;;2.53;2.15;;;;;;;;;;5034259;28;20120;-70
2021/01/13 02:38:01;;;;;;;1.88;1.67;;;;;;;;;;5033905;28;20044;-70
2021/01/13 02:40:28;;;;;;;2.15;1.95;;;;;;;;;;5034308;28;20368;-70
2021/01/13 02:43:01;;;;;;;2.55;1.73;;;;;;;;;;5034183;28;20017;-70
2021/01/13 02:45:43;;;;;;;2.00;1.77;;;;;;;;;;5034311;28;20038;-70
2021/01/13 02:48:22;;;;;;;1.90;1.63;;;;;;;;;;5033916;28;20128;-70
2021/01/13 02:50:53;;;;;;;1.60;1.50;;;;;;;;;;5034016;28;20037;-71
2021/01/13 02:53:22;;;;;;;1.67;1.58;;;;;;;;;;5034066;28;20392;-70
2021/01/13 02:55:47;;;;;;;1.48;1.38;;;;;;;;;;5033666;28;20022;-67
2021/01/13 02:58:33;;;;;;;1.52;1.42;;;;;;;;;;5032608;28;20534;-69
2021/01/13 03:01:00;;;;;;;1.95;1.75;;;;;;;;;;5027125;28;20096;-68
2021/01/13 03:03:25;;;;;;;1.98;1.52;;;;;;;;;;5032913;28;20024;-68
2021/01/13 03:05:51;;;;;;;2.00;1.90;;;;;;;;;;5033665;28;20033;-68
2021/01/13 03:08:17;;;;;;;1.90;1.58;;;;;;;;;;5033739;28;20078;-68
2021/01/13 03:10:45;;;;;;;1.75;1.55;;;;;;;;;;5033764;28;20029;-67
2021/01/13 03:13:11;;;;;;;2.53;2.05;;;;;;;;;;5033583;28;20009;-68
2021/01/13 03:15:38;;;;;;;1.75;1.60;;;;;;;;;;5033813;28;20567;-68
2021/01/13 03:18:08;;;;;;;1.58;1.48;;;;;;;;;;5033613;28;20029;-69
2021/01/13 03:20:38;;;;;;;1.98;1.83;;;;;;;;;;5016110;28;20030;-69
2021/01/13 03:23:23;;;;;;;2.45;2.03;;;;;;;;;;5033598;28;20037;-68
2021/01/13 03:25:59;;;;;;;2.10;1.98;;;;;;;;;;5033629;28;20460;-68
2021/01/13 03:28:25;;;;;;;2.45;2.25;;;;;;;;;;5032255;28;20070;-68
2021/01/13 03:30:52;;;;;;;3.20;2.47;;;;;;;;;;5032775;28;20013;-68
2021/01/13 03:33:24;;;;;;;2.15;1.80;;;;;;;;;;5033603;28;20530;-68
2021/01/13 03:36:05;;;;;;;1.73;1.63;;;;;;;;;;5031849;28;20060;-69
2021/01/13 03:38:31;;;;;;;2.03;1.83;;;;;;;;;;5033731;28;20049;-67
2021/01/13 03:41:02;;;;;;;1.75;1.65;;;;;;;;;;5033103;28;20022;-67
2021/01/13 03:43:27;;;;;;;;;;;;;;;;;;5034101;28;20118;-67
2021/01/13 03:45:54;;;;;;;2.17;1.98;;;;;;;;;;5033510;28;20379;-67
2021/01/13 03:48:34;;;;;;;1.80;1.65;;;;;;;;;;5033333;28;20388;-67
2021/01/13 03:51:01;;;;;;;2.35;2.15;;;;;;;;;;5033448;28;20034;-68
2021/01/13 03:53:27;;;;;;;2.60;1.90;;;;;;;;;;5033108;28;20056;-67
2021/01/13 03:55:54;;;;;;;2.33;2.13;;;;;;;;;;5031629;28;20053;-68
2021/01/13 03:58:38;;;;;;;2.58;2.38;;;;;;;;;;5033233;28;20029;-68
2021/01/13 04:01:22;;;;;;;2.47;2.28;;;;;;;;;;5033213;28;20034;-68
2021/01/13 04:03:54;;;;;;;2.15;1.75;;;;;;;;;;5031943;28;20044;-69
2021/01/13 04:06:21;;;;;;;3.00;2.67;;;;;;;;;;5033307;28;20460;-69
2021/01/13 04:08:46;;;;;;;2.53;2.25;;;;;;;;;;5031984;28;20472;-68
2021/01/13 04:11:13;;;;;;;2.22;2.03;;;;;;;;;;5033013;28;20051;-67
2021/01/13 04:13:39;;;;;;;2.88;2.05;;;;;;;;;;5031669;28;20022;-67
2021/01/13 04:16:05;;;;;;;2.47;2.38;;;;;;;;;;5033040;28;20045;-68
2021/01/13 04:18:31;;;;;;;1.63;1.52;;;;;;;;;;5033135;28;20022;-68
2021/01/13 04:20:57;;;;;;;2.05;1.80;;;;;;;;;;5033069;28;20460;-68
2021/01/13 04:23:22;;;;;;;2.60;2.40;;;;;;;;;;5032907;28;20014;-69
2021/01/13 04:25:50;;;;;;;2.40;2.20;;;;;;;;;;5032983;28;20061;-69
2021/01/13 04:28:15;;;;;;;3.10;2.55;;;;;;;;;;5033056;28;20021;-69
2021/01/13 04:30:41;;;;;;;3.00;2.45;;;;;;;;;;5032903;28;20018;-68
2021/01/13 04:33:07;;;;;;;2.58;2.20;;;;;;;;;;5033201;28;20574;-68
2021/01/13 04:35:33;;;;;;;2.55;2.33;;;;;;;;;;5031512;28;20029;-68
2021/01/13 04:37:58;;;;;;;2.67;2.30;;;;;;;;;;5032905;28;20018;-68
2021/01/13 04:40:24;;;;;;;2.67;2.42;;;;;;;;;;5031577;28;20034;-67
2021/01/13 04:42:59;;;;;;;2.60;2.40;;;;;;;;;;5034178;28;20018;-68
2021/01/13 04:45:39;;;;;;;1.90;1.77;;;;;;;;;;5036433;28;20032;-67
2021/01/13 04:48:05;;;;;;;2.72;2.47;;;;;;;;;;5036170;28;20032;-68
2021/01/13 04:50:35;;;;;;;2.50;2.20;;;;;;;;;;5036383;28;20075;-67
2021/01/13 04:53:06;;;;;;;2.20;2.00;;;;;;;;;;5036181;28;20033;-68
2021/01/13 04:55:41;;;;;;;2.00;1.90;;;;;;;;;;5035089;28;20371;-69
2021/01/13 04:58:12;;;;;;;2.45;2.25;;;;;;;;;;5034702;28;20113;-69
2021/01/13 05:00:57;;;;;;;2.65;2.45;;;;;;;;;;5035969;28;20368;-69
2021/01/13 05:03:35;;;;;;;2.38;2.17;;;;;;;;;;5035891;28;20092;-68
2021/01/13 05:06:20;;;;;;;2.38;1.98;;;;;;;;;;5036132;28;20034;-69
2021/01/13 05:09:02;;;;;;;2.53;2.13;;;;;;;;;;5004338;28;20458;-69
2021/01/13 05:11:28;;;;;;;2.40;1.80;;;;;;;;;;5035966;28;20033;-69
2021/01/13 05:13:53;;;;;;;2.63;2.17;;;;;;;;;;5035930;28;20021;-69
2021/01/13 05:16:26;;;;;;;2.25;2.05;;;;;;;;;;5034532;28;20030;-69
2021/01/13 05:18:59;;;;;;;2.70;1.73;;;;;;;;;;5036065;28;20086;-69
2021/01/13 05:21:25;;;;;;;1.65;1.55;;;;;;;;;;5035712;28;20041;-68
2021/01/13 05:23:52;;;;;;;2.08;1.98;;;;;;;;;;5035446;28;20029;-67
2021/01/13 05:26:22;;;;;;;1.70;1.60;;;;;;;;;;5035712;28;20086;-67
2021/01/13 05:29:15;;;;;;;2.35;1.75;;;;;;;;;;5034046;28;20353;-67
2021/01/13 05:31:43;;;;;;;1.40;1.20;;;;;;;;;;5034375;28;20029;-68
2021/01/13 05:34:08;;;;;;;1.55;1.45;;;;;;;;;;5035318;28;20014;-68
2021/01/13 05:36:39;;;;;;;1.58;1.48;;;;;;;;;;5034927;28;20128;-68
2021/01/13 05:39:10;;;;;;;1.55;1.35;;;;;;;;;;5035719;28;20030;-68
2021/01/13 05:41:37;;;;;;;1.52;1.30;;;;;;;;;;5035414;28;20045;-68
2021/01/13 05:44:03;;;;;;;0.95;0.95;;;;;;;;;;5035331;28;20022;-68
2021/01/13 05:46:41;;;;;;;1.05;1.00;;;;;;;;;;5035283;28;20025;-68
2021/01/13 05:49:08;;;;;;;1.25;1.15;;;;;;;;;;5035198;28;20487;-68
2021/01/13 05:51:34;;;;;;;1.17;1.08;;;;;;;;;;5034964;28;20021;-67
2021/01/13 05:54:02;;;;;;;1.20;1.10;;;;;;;;;;5034498;28;20419;-67
2021/01/13 05:56:28;;;;;;;1.42;0.90;;;;;;;;;;5034854;28;20059;-67
2021/01/13 05:59:00;;;;;;;1.23;1.13;;;;;;;;;;5035016;28;20025;-68
2021/01/13 06:01:36;;;;;;;0.80;0.80;;;;;;;;;;5035129;28;20468;-68
2021/01/13 06:04:05;;;;;;;2.00;1.20;;;;;;;;;;5035005;28;20071;-67
2021/01/13 06:06:35;;;;;;;1.92;1.10;;;;;;;;;;5033644;28;20022;-67
2021/01/13 06:09:01;;;;;;;1.25;1.08;;;;;;;;;;5033611;28;20377;-67
2021/01/13 06:11:28;;;;;;;1.13;1.00;;;;;;;;;;5035029;28;20025;-67
2021/01/13 06:13:56;;;;;;;1.17;0.90;;;;;;;;;;5034675;28;20102;-67
2021/01/13 06:16:21;;;;;;;2.35;1.48;;;;;;;;;;5034796;28;20028;-67
2021/01/13 06:18:49;;;;;;;1.20;1.00;;;;;;;;;;5034430;28;20116;-67
2021/01/13 06:21:15;;;;;;;2.83;1.13;;;;;;;;;;5034380;28;20535;-68
2021/01/13 06:23:43;;;;;;;1.27;1.17;;;;;;;;;;5033261;28;20108;-68
2021/01/13 06:26:09;;;;;;;1.83;1.20;;;;;;;;;;5034264;28;20029;-68
2021/01/13 06:28:53;;;;;;;1.75;1.25;;;;;;;;;;5034516;28;20029;-69
2021/01/13 06:31:22;;;;;;;1.35;0.90;;;;;;;;;;5034412;28;20036;-68
2021/01/13 06:33:57;;;;;;;1.10;1.00;;;;;;;;;;5034325;28;20495;-68
2021/01/13 06:36:29;;;;;;;1.38;0.98;;;;;;;;;;5034158;28;20116;-68
2021/01/13 06:38:55;;;;;;;2.33;1.10;;;;;;;;;;5032828;28;20029;-69
2021/01/13 06:41:22;;;;;;;0.93;0.93;;;;;;;;;;5034057;28;20013;-68
2021/01/13 06:44:04;;;;;;;2.45;1.23;;;;;;;;;;5030118;28;20018;-70
2021/01/13 06:46:30;;;;;;;1.45;1.10;;;;;;;;;;5030733;28;20030;-70
2021/01/13 06:49:09;;;;;;;2.08;1.25;;;;;;;;;;5030844;28;20021;-70
2021/01/13 06:51:35;;;;;;;1.70;1.17;;;;;;;;;;5032359;28;20029;-71
2021/01/13 06:54:02;;;;;;;1.58;1.15;;;;;;;;;;5032169;28;20036;-70
2021/01/13 06:56:28;;;;;;;1.58;1.13;;;;;;;;;;5033169;28;20034;-71
2021/01/13 06:58:57;;;;;;;1.13;1.02;;;;;;;;;;5033758;28;20078;-71
2021/01/13 07:01:23;;;;;;;1.17;1.08;;;;;;;;;;5033552;28;20021;-71
2021/01/13 07:03:58;;;;;;;2.83;1.50;;;;;;;;;;5033007;28;20017;-71
2021/01/13 07:06:24;;;;;;;2.40;1.42;;;;;;;;;;5033703;28;20025;-71
2021/01/13 07:08:50;;;;;;;1.17;1.08;;;;;;;;;;5033968;28;20048;-71
2021/01/13 07:11:25;;;;;;;1.35;1.00;;;;;;;;;;5032708;28;20059;-70
2021/01/13 07:13:51;;;;;;;1.92;1.40;;;;;;;;;;5033660;28;20017;-70
2021/01/13 07:16:21;;;;;;;2.03;1.25;;;;;;;;;;5033410;28;20053;-70
2021/01/13 07:18:47;;;;;;;4.15;2.17;;;;;;;;;;5032996;28;20087;-70
2021/01/13 07:21:12;;;;;;;1.90;1.50;;;;;;;;;;5033282;28;20030;-70
2021/01/13 07:23:45;;;;;;;2.42;1.85;;;;;;;;;;5033218;28;20025;-70
2021/01/13 07:26:11;;;;;;;2.88;2.30;;;;;;;;;;5033518;28;20025;-71
2021/01/13 07:28:37;;;;;;;2.30;1.95;;;;;;;;;;5033232;28;20419;-71
2021/01/13 07:31:03;;;;;;;2.42;1.73;;;;;;;;;;5031779;28;20022;-71
2021/01/13 07:33:32;;;;;;;1.52;1.13;;;;;;;;;;5033524;28;20021;-71
2021/01/13 07:35:58;;;;;;;3.03;1.90;;;;;;;;;;5033273;28;20487;-71
2021/01/13 07:38:28;;;;;;;2.85;2.10;;;;;;;;;;5029568;28;20010;-71
2021/01/13 07:41:04;;;;;;;3.95;2.33;;;;;;;;;;5044327;28;20025;-71
2021/01/13 07:43:48;;;;;;;5.30;2.97;;;;;;;;;;5033122;28;20076;-71
2021/01/13 07:46:25;;;;;;;6.53;3.50;;;;;;;;;;5013630;28;20030;-70
2021/01/13 07:48:50;;;;;;;6.85;3.88;;;;;;;;;;5023071;28;20350;-70
2021/01/13 07:51:18;;;;;;;10.35;5.43;;;;;;;;;;5032493;28;20116;-70
2021/01/13 07:53:51;;;;;;;15.93;7.10;;;;;;;;;;5032739;28;20038;-70
2021/01/13 07:56:19;;;;;;;7.10;3.67;;;;;;;;;;5031458;28;20442;-70
2021/01/13 07:59:16;;;;;;;12.75;5.57;;;;;;;;;;5033156;28;20071;-70
2021/01/13 08:01:45;;;;;;;6.95;4.47;;;;;;;;;;5031002;28;20034;-70
2021/01/13 08:04:16;;;;;;;6.88;3.95;;;;;;;;;;5032747;28;20014;-70
2021/01/13 08:06:53;;;;;;;5.70;2.88;;;;;;;;;;5032700;28;20021;-70
2021/01/13 08:09:25;;;;;;;4.65;2.40;;;;;;;;;;5030331;28;20440;-70
2021/01/13 08:12:09;;;;;;;6.78;3.50;;;;;;;;;;5031846;28;20032;-68
2021/01/13 08:14:47;;;;;;;4.88;2.22;;;;;;;;;;5029950;28;20040;-68
2021/01/13 08:17:33;;;;;;;6.97;3.15;;;;;;;;;;5033269;28;20064;-68
2021/01/13 08:20:22;;;;;;;6.18;3.88;;;;;;;;;;5021742;28;20472;-68
2021/01/13 08:22:55;;;;;;;6.75;3.80;;;;;;;;;;5023403;28;20029;-68
2021/01/13 08:25:25;;;;;;;4.97;3.38;;;;;;;;;;5034673;28;20464;-68
2021/01/13 08:27:57;;;;;;;4.63;2.72;;;;;;;;;;5036709;28;20120;-68
2021/01/13 08:30:27;;;;;;;5.60;3.30;;;;;;;;;;5035895;28;20033;-68
2021/01/13 08:32:54;;;;;;;7.27;3.43;;;;;;;;;;5036424;28;20080;-68
2021/01/13 08:35:25;;;;;;;5.80;3.45;;;;;;;;;;5036432;28;20108;-68
2021/01/13 08:38:04;;;;;;;5.60;3.35;;;;;;;;;;5036600;28;20033;-68
2021/01/13 08:40:29;;;;;;;5.85;3.58;;;;;;;;;;5036930;28;20082;-68
2021/01/13 08:43:05;;;;;;;4.70;3.00;;;;;;;;;;5036492;28;20022;-68
2021/01/13 08:45:38;;;;;;;4.22;2.80;;;;;;;;;;5036474;28;20026;-68
2021/01/13 08:48:13;;;;;;;7.30;3.65;;;;;;;;;;5036441;28;20407;-68
2021/01/13 08:50:39;;;;;;;6.40;3.20;;;;;;;;;;5036537;28;20475;-68
2021/01/13 08:53:05;;;;;;;7.68;3.33;;;;;;;;;;5036219;28;20022;-68
2021/01/13 08:55:31;;;;;;;5.00;3.13;;;;;;;;;;5033600;28;20518;-68
2021/01/13 08:58:07;;;;;;;5.03;3.15;;;;;;;;;;5048939;28;20410;-68
2021/01/13 09:00:34;;;;;;;5.45;2.90;;;;;;;;;;5036169;28;20029;-68
2021/01/13 09:03:01;;;;;;;7.82;3.53;;;;;;;;;;5035937;28;20036;-68
2021/01/13 09:05:36;;;;;;;6.43;4.05;;;;;;;;;;5035841;28;20018;-68
2021/01/13 09:08:05;;;;;;;4.65;3.20;;;;;;;;;;5035731;28;20022;-68
2021/01/13 09:10:52;;;;;;;8.02;3.92;;;;;;;;;;5035866;28;20030;-68
2021/01/13 09:13:38;;;;;;;4.13;3.15;;;;;;;;;;5034646;28;20464;-68
2021/01/13 09:16:22;;;;;;;7.65;3.70;;;;;;;;;;5035710;28;20108;-68
2021/01/13 09:18:58;;;;;;;4.65;2.47;;;;;;;;;;5035584;28;20032;-68
2021/01/13 09:21:37;;;;;;;5.80;3.17;;;;;;;;;;5035713;28;20025;-68
2021/01/13 09:24:03;;;;;;;5.32;3.03;;;;;;;;;;5035753;28;20034;-68
2021/01/13 09:26:38;;;;;;;5.38;3.65;;;;;;;;;;5035732;28;20022;-68
2021/01/13 09:29:10;;;;;;;3.65;2.10;;;;;;;;;;5034467;28;20484;-68
2021/01/13 09:31:36;;;;;;;5.28;2.75;;;;;;;;;;5035772;28;20044;-68
2021/01/13 09:34:02;;;;;;;5.72;3.60;;;;;;;;;;5035543;28;20117;-68
2021/01/13 09:36:28;;;;;;;6.10;2.88;;;;;;;;;;5035212;28;20112;-68
2021/01/13 09:39:10;;;;;;;10.38;4.15;;;;;;;;;;5035316;28;20100;-68
2021/01/13 09:41:38;;;;;;;5.18;2.83;;;;;;;;;;5034122;28;20021;-68
2021/01/13 09:44:13;;;;;;;7.10;3.80;;;;;;;;;;5035307;28;20108;-68
2021/01/13 09:46:39;;;;;;;4.55;3.22;;;;;;;;;;5033884;28;20111;-68
2021/01/13 09:49:06;;;;;;;4.57;2.80;;;;;;;;;;5035162;28;20025;-68
2021/01/13 09:51:33;;;;;;;5.43;3.22;;;;;;;;;;5032695;28;20029;-68
2021/01/13 09:54:00;;;;;;;4.07;3.25;;;;;;;;;;5031958;28;20116;-68
2021/01/13 09:56:26;;;;;;;5.82;4.05;;;;;;;;;;5032866;28;20033;-68
2021/01/13 09:58:52;;;;;;;7.20;4.47;;;;;;;;;;5034524;28;20503;-68
2021/01/13 10:01:25;;;;;;;6.80;4.03;;;;;;;;;;5034933;28;20034;-68
2021/01/13 10:03:51;;;;;;;9.77;4.88;;;;;;;;;;5034610;28;20060;-68
2021/01/13 10:06:18;;;;;;;6.60;5.35;;;;;;;;;;5035096;28;20075;-68
2021/01/13 10:08:44;;;;;;;6.80;5.43;;;;;;;;;;5034272;28;20022;-68
2021/01/13 10:11:10;;;;;;;8.27;5.35;;;;;;;;;;5030514;28;20104;-68
2021/01/13 10:13:39;;;;;;;8.60;5.43;;;;;;;;;;5034672;28;20034;-68
2021/01/13 10:16:05;;;;;;;9.95;5.80;;;;;;;;;;5033947;28;20030;-68
2021/01/13 10:18:31;;;;;;;11.75;6.97;;;;;;;;;;5030807;28;20013;-68
2021/01/13 10:20:57;;;;;;;8.35;4.88;;;;;;;;;;5032650;28;20376;-68
2021/01/13 10:23:24;;;;;;;9.90;6.00;;;;;;;;;;5033322;28;20035;-70
2021/01/13 10:25:50;;;;;;;10.13;6.22;;;;;;;;;;5032693;28;20013;-68
2021/01/13 10:28:15;;;;;;;7.45;4.43;;;;;;;;;;5034079;28;20078;-68
2021/01/13 10:30:41;;;;;;;5.53;3.75;;;;;;;;;;5034247;28;20029;-68
2021/01/13 10:33:07;;;;;;;5.32;3.65;;;;;;;;;;5034550;28;20025;-68
2021/01/13 10:35:39;;;;;;;7.50;4.45;;;;;;;;;;5033919;28;20025;-68
2021/01/13 10:38:05;;;;;;;5.63;4.07;;;;;;;;;;5016287;28;20026;-68
2021/01/13 10:40:30;;;;;;;7.15;4.55;;;;;;;;;;5033967;28;20120;-68
2021/01/13 10:42:56;;;;;;;7.25;4.78;;;;;;;;;;5034121;28;20040;-68
2021/01/13 10:45:22;;;;;;;7.07;4.55;;;;;;;;;;5034011;28;20025;-68
2021/01/13 10:47:55;;;;;;;10.25;5.20;;;;;;;;;;5033926;28;20033;-68
2021/01/13 10:50:28;;;;;;;9.18;6.00;;;;;;;;;;5034056;28;20038;-68
2021/01/13 10:53:01;;;;;;;10.48;4.72;;;;;;;;;;5034103;28;20025;-68
2021/01/13 10:55:28;;;;;;;9.52;5.15;;;;;;;;;;5032760;28;20030;-68
2021/01/13 10:57:54;;;;;;;9.82;5.35;;;;;;;;;;5033050;28;20036;-68
2021/01/13 11:00:22;;;;;;;6.88;4.88;;;;;;;;;;5033555;28;20069;-68
2021/01/13 11:03:06;;;;;;;5.63;3.20;;;;;;;;;;5033871;28;20063;-67
2021/01/13 11:05:35;;;;;;;7.28;4.60;;;;;;;;;;5033852;28;20040;-68
2021/01/13 11:08:02;;;;;;;5.38;3.92;;;;;;;;;;5033814;28;20033;-68
2021/01/13 11:10:28;;;;;;;8.93;5.55;;;;;;;;;;5032529;28;20388;-68
2021/01/13 11:13:04;;;;;;;9.93;5.05;;;;;;;;;;5033481;28;20025;-69
2021/01/13 11:15:30;;;;;;;5.07;3.85;;;;;;;;;;5031783;28;20368;-68
2021/01/13 11:17:56;;;;;;;7.45;4.30;;;;;;;;;;5033462;28;20025;-68
2021/01/13 11:20:23;;;;;;;7.10;4.35;;;;;;;;;;5032474;28;20116;-68
2021/01/13 11:22:50;;;;;;;8.68;5.03;;;;;;;;;;5033270;28;20107;-68
2021/01/13 11:25:23;;;;;;;9.57;5.53;;;;;;;;;;5033565;28;20059;-68
2021/01/13 11:27:56;;;;;;;9.10;5.32;;;;;;;;;;5033229;28;20033;-67
2021/01/13 11:30:22;;;;;;;5.32;3.67;;;;;;;;;;5033264;28;20076;-67
2021/01/13 11:32:52;;;;;;;6.68;4.25;;;;;;;;;;5033357;28;20053;-67
2021/01/13 11:35:26;;;;;;;8.40;5.63;;;;;;;;;;5033716;28;20064;-67
2021/01/13 11:38:06;;;;;;;7.60;4.40;;;;;;;;;;5033604;28;20288;-68
2021/01/13 11:40:36;;;;;;;8.35;4.32;;;;;;;;;;5032743;28;20215;-67
2021/01/13 11:43:21;;;;;;;10.60;6.05;;;;;;;;;;5012049;28;20045;-67
2021/01/13 11:45:52;;;;;;;9.40;5.53;;;;;;;;;;5032764;28;20057;-67
2021/01/13 11:48:21;;;;;;;12.23;6.43;;;;;;;;;;5033436;28;20025;-67
2021/01/13 11:50:52;;;;;;;9.07;5.60;;;;;;;;;;5033760;28;20107;-67
2021/01/13 11:53:22;;;;;;;11.63;7.47;;;;;;;;;;5035742;28;20146;-67
2021/01/13 11:55:47;;;;;;;11.93;7.40;;;;;;;;;;5037543;28;20017;-67
2021/01/13 11:58:15;;;;;;;11.70;7.13;;;;;;;;;;5036199;28;20036;-68
2021/01/13 12:00:41;;;;;;;15.32;7.35;;;;;;;;;;5037088;28;20522;-67
2021/01/13 12:03:06;;;;;;;15.45;9.25;;;;;;;;;;5036425;28;20025;-67
2021/01/13 12:05:34;;;;;;;14.00;8.00;;;;;;;;;;5037230;28;20453;-67
2021/01/13 12:08:00;;;;;;;11.40;7.90;;;;;;;;;;5036603;28;20064;-67
2021/01/13 12:10:47;;;;;;;17.55;9.90;;;;;;;;;;5036703;28;20021;-70
2021/01/13 12:13:22;;;;;;;16.05;9.95;;;;;;;;;;5037033;28;20076;-70
2021/01/13 12:15:51;;;;;;;14.48;9.15;;;;;;;;;;5037106;28;20052;-70
2021/01/13 12:18:22;;;;;;;16.67;11.02;;;;;;;;;;5035393;28;20029;-70
2021/01/13 12:20:48;;;;;;;18.23;11.38;;;;;;;;;;5036704;28;20025;-70
2021/01/13 12:23:21;;;;;;;19.70;11.90;;;;;;;;;;5036652;28;20425;-70
2021/01/13 12:25:47;;;;;;;12.75;8.15;;;;;;;;;;5036718;28;20372;-70
2021/01/13 12:28:14;;;;;;;16.67;10.32;;;;;;;;;;5036342;28;20027;-70
2021/01/13 12:30:52;;;;;;;13.43;9.02;;;;;;;;;;5036299;28;20029;-70
2021/01/13 12:33:18;;;;;;;16.65;10.80;;;;;;;;;;5035176;28;20076;-70
2021/01/13 12:35:44;;;;;;;18.00;10.15;;;;;;;;;;5034982;28;20029;-70
2021/01/13 12:38:09;;;;;;;15.57;8.95;;;;;;;;;;5036315;28;20109;-70
2021/01/13 12:40:35;;;;;;;12.60;9.07;;;;;;;;;;5036689;28;20010;-70
2021/01/13 12:43:13;;;;;;;18.52;10.45;;;;;;;;;;5036173;28;20388;-70
2021/01/13 12:45:39;;;;;;;15.57;8.82;;;;;;;;;;5035954;28;20024;-70
2021/01/13 12:48:05;;;;;;;11.95;6.78;;;;;;;;;;5036099;28;20021;-72
2021/01/13 12:50:30;;;;;;;17.73;9.90;;;;;;;;;;5035887;28;20107;-70
2021/01/13 12:52:55;;;;;;;11.77;8.05;;;;;;;;;;5035957;28;20021;-70
2021/01/13 12:55:21;;;;;;;16.92;11.18;;;;;;;;;;5036096;28;20368;-70
2021/01/13 12:57:46;;;;;;;8.57;5.43;;;;;;;;;;5033699;28;20064;-70
2021/01/13 13:00:12;;;;;;;10.70;6.57;;;;;;;;;;5032226;28;20041;-71
2021/01/13 13:02:38;;;;;;;10.30;6.10;;;;;;;;;;5034841;28;20399;-70
2021/01/13 13:05:04;;;;;;;13.98;8.00;;;;;;;;;;5034176;28;20105;-70
2021/01/13 13:07:32;;;;;;;12.52;7.50;;;;;;;;;;5036026;28;20574;-70
2021/01/13 13:09:58;;;;;;;8.68;5.75;;;;;;;;;;5035940;28;20037;-70
2021/01/13 13:12:23;;;;;;;9.02;5.82;;;;;;;;;;5036033;28;20021;-70
2021/01/13 13:14:49;;;;;;;10.63;7.10;;;;;;;;;;5035969;28;20511;-70
2021/01/13 13:17:14;;;;;;;9.55;6.57;;;;;;;;;;5035908;28;20486;-70
2021/01/13 13:19:40;;;;;;;8.50;5.75;;;;;;;;;;5035726;28;20116;-70
2021/01/13 13:22:05;;;;;;;10.90;5.55;;;;;;;;;;5035666;28;20025;-70
2021/01/13 13:24:32;;;;;;;7.70;4.97;;;;;;;;;;5035707;28;20125;-70
2021/01/13 13:26:57;;;;;;;8.90;5.47;;;;;;;;;;5035480;28;20021;-70
2021/01/13 13:29:23;;;;;;;8.18;5.60;;;;;;;;;;5035392;28;20164;-70
2021/01/13 13:31:49;;;;;;;8.32;5.15;;;;;;;;;;5034410;28;20053;-70
2021/01/13 13:34:15;;;;;;;7.47;5.47;;;;;;;;;;5035466;28;20116;-70
2021/01/13 13:36:40;;;;;;;8.20;5.13;;;;;;;;;;5035484;28;20575;-70
2021/01/13 13:39:05;;;;;;;7.60;4.72;;;;;;;;;;5033476;28;20025;-70
2021/01/13 13:41:31;;;;;;;8.15;5.03;;;;;;;;;;5035261;28;20018;-70
2021/01/13 13:43:56;;;;;;;7.53;4.30;;;;;;;;;;5035231;28;20028;-70
2021/01/13 13:46:22;;;;;;;7.35;5.03;;;;;;;;;;5035332;28;20029;-70
2021/01/13 13:48:47;;;;;;;6.15;4.32;;;;;;;;;;5034538;28;20021;-70
2021/01/13 13:51:14;;;;;;;8.63;5.18;;;;;;;;;;5032799;28;20013;-70
2021/01/13 13:53:39;;;;;;;6.85;3.88;;;;;;;;;;5034736;28;20472;-70
2021/01/13 13:56:06;;;;;;;5.45;4.30;;;;;;;;;;5027676;28;20021;-70
2021/01/13 13:58:32;;;;;;;6.47;4.00;;;;;;;;;;5032579;28;20029;-70
2021/01/13 14:00:57;;;;;;;5.35;3.83;;;;;;;;;;5033510;28;20088;-70
2021/01/13 14:03:23;;;;;;;5.38;3.78;;;;;;;;;;5034473;28;20057;-70
2021/01/13 14:05:48;;;;;;;4.28;3.63;;;;;;;;;;5033210;28;20415;-70
2021/01/13 14:08:14;;;;;;;5.32;3.63;;;;;;;;;;5034488;28;20131;-70
2021/01/13 14:10:39;;;;;;;3.65;3.10;;;;;;;;;;5034378;28;20032;-71
2021/01/13 14:13:05;;;;;;;4.65;3.63;;;;;;;;;;5034319;28;20029;-71
2021/01/13 14:15:30;;;;;;;10.88;4.90;;;;;;;;;;5031003;28;20029;-71
2021/01/13 14:17:56;;;;;;;8.50;4.63;;;;;;;;;;5033738;28;20067;-70
2021/01/13 14:20:21;;;;;;;12.13;5.68;;;;;;;;;;5025781;28;20383;-71
2021/01/13 14:22:46;;;;;;;9.60;4.32;;;;;;;;;;5029573;28;20095;-70
2021/01/13 14:25:12;;;;;;;9.90;5.00;;;;;;;;;;5027849;28;20099;-71
2021/01/13 14:27:38;;;;;;;5.75;3.80;;;;;;;;;;5020244;28;20069;-70
2021/01/13 14:30:04;;;;;;;5.82;4.25;;;;;;;;;;5027256;28;20387;-70
2021/01/13 14:32:30;;;;;;;5.30;4.57;;;;;;;;;;5033076;28;20034;-70
2021/01/13 14:34:55;;;;;;;7.30;5.00;;;;;;;;;;5031471;28;20031;-69
2021/01/13 14:37:21;;;;;;;7.05;5.60;;;;;;;;;;5031066;28;20037;-70
2021/01/13 14:39:47;;;;;;;7.60;5.13;;;;;;;;;;5031725;28;20388;-70
2021/01/13 14:42:13;;;;;;;7.93;5.28;;;;;;;;;;5029614;28;20079;-70
2021/01/13 14:44:40;;;;;;;9.38;5.50;;;;;;;;;;5033351;28;20021;-70
2021/01/13 14:47:09;;;;;;;6.32;3.83;;;;;;;;;;5029815;28;20053;-71
2021/01/13 14:49:34;;;;;;;9.45;5.93;;;;;;;;;;5030729;28;20025;-70
2021/01/13 14:52:04;;;;;;;11.65;6.05;;;;;;;;;;5033754;28;20392;-69
2021/01/13 14:54:30;;;;;;;8.20;5.35;;;;;;;;;;5033729;28;20041;-70